Time;durP1;ratioP1;P1;durP2;ratioP2;P2;SDS_P1;SDS_P2;PMS_P1;PMS_P2;Temp;Humidity;BMP_temperature;BMP_pressure;BME280_temperature;BME280_humidity;BME280_pressure;Samples;Min_cycle;Max_cycle;Signal;HPM_P1;HPM_P2
2023/12/23 00:01:16;;;;;;;0.80;0.80;;;;;;;6.15;100.00;94349.78;7397200;19;20357;-92
2023/12/23 00:03:44;;;;;;;0.70;0.70;;;;;;;5.88;100.00;94312.75;7397943;19;20413;-92
2023/12/23 00:06:12;;;;;;;0.60;0.60;;;;;;;5.69;100.00;94300.16;7397585;19;20377;-92
2023/12/23 00:08:39;;;;;;;0.77;0.73;;;;;;;5.86;100.00;94307.13;7395575;19;20387;-92
2023/12/23 00:11:07;;;;;;;0.93;0.80;;;;;;;5.27;100.00;94236.19;7396724;19;20460;-91
2023/12/23 00:13:34;;;;;;;0.70;0.60;;;;;;;6.71;100.00;94467.53;7397246;19;20380;-91
2023/12/23 00:16:02;;;;;;;0.70;0.70;;;;;;;6.40;100.00;94424.38;7399875;19;20381;-92
2023/12/23 00:18:29;;;;;;;0.60;0.60;;;;;;;5.98;100.00;94345.47;7404692;19;20380;-93
2023/12/23 00:20:57;;;;;;;4.10;0.70;;;;;;;5.59;100.00;94294.59;7404227;19;20877;-92
2023/12/23 00:23:24;;;;;;;0.60;0.60;;;;;;;6.31;100.00;94400.22;7401576;19;20388;-91
2023/12/23 00:25:52;;;;;;;1.30;0.90;;;;;;;6.62;100.00;94457.16;7404599;19;20377;-91
2023/12/23 00:28:19;;;;;;;0.80;0.80;;;;;;;6.45;100.00;94441.66;7402837;19;20389;-92
2023/12/23 00:30:47;;;;;;;0.90;0.70;;;;;;;6.32;100.00;94437.44;7403954;19;20384;-91
2023/12/23 00:33:14;;;;;;;0.80;0.70;;;;;;;5.97;100.00;94409.03;7401391;19;20428;-92
2023/12/23 00:35:44;;;;;;;0.80;0.80;;;;;;;6.77;100.00;94508.75;7403975;19;20906;-91
2023/12/23 00:38:13;;;;;;;0.60;0.60;;;;;;;5.54;100.00;94349.41;7404396;19;20413;-93
2023/12/23 00:40:40;;;;;;;0.60;0.60;;;;;;;5.86;100.00;94389.66;7404548;19;20388;-91
2023/12/23 00:43:09;;;;;;;0.70;0.70;;;;;;;6.60;100.00;94495.06;7400776;19;20412;-91
2023/12/23 00:45:36;;;;;;;1.50;0.77;;;;;;;6.42;100.00;94491.81;7403736;19;20377;-91
2023/12/23 00:48:04;;;;;;;0.70;0.60;;;;;;;6.12;100.00;94415.53;7402151;19;20389;-91
2023/12/23 00:50:32;;;;;;;0.70;0.60;;;;;;;6.93;100.00;94565.53;7403278;19;20446;-92
2023/12/23 00:53:02;;;;;;;0.70;0.60;;;;;;;6.26;100.00;94455.88;7400943;19;20377;-91
2023/12/23 00:55:30;;;;;;;0.70;0.70;;;;;;;6.64;100.00;94520.19;7403415;19;20388;-90
2023/12/23 00:57:57;;;;;;;0.60;0.60;;;;;;;6.19;100.00;94460.81;7403802;19;20447;-91
2023/12/23 01:00:25;;;;;;;1.27;1.17;;;;;;;6.00;100.00;94447.47;7403584;19;20853;-91
2023/12/23 01:05:23;;;;;;;1.27;0.70;;;;;;;6.54;100.00;94531.72;7402960;19;20393;-91
2023/12/23 01:07:51;;;;;;;0.60;0.60;;;;;;;6.12;100.00;94481.41;7402133;19;20396;-91
2023/12/23 01:10:22;;;;;;;1.20;0.90;;;;;;;6.38;100.00;94516.97;7403158;19;20389;-91
2023/12/23 01:12:49;;;;;;;0.70;0.67;;;;;;;6.71;100.00;94580.38;7402219;19;20396;-92
2023/12/23 01:15:17;;;;;;;1.03;0.93;;;;;;;5.85;100.00;94453.19;7402672;19;20385;-92
2023/12/23 01:17:45;;;;;;;0.60;0.60;;;;;;;6.47;100.00;94544.47;7402840;19;20377;-91
2023/12/23 01:20:13;;;;;;;0.60;0.60;;;;;;;6.37;100.00;94541.47;7402580;19;20437;-92
2023/12/23 01:22:40;;;;;;;0.70;0.60;;;;;;;6.49;100.00;94565.00;7400892;19;20431;-91
2023/12/23 01:25:08;;;;;;;0.90;0.80;;;;;;;5.76;100.00;94491.50;7403101;19;20413;-87
2023/12/23 01:27:36;;;;;;;0.63;0.60;;;;;;;5.85;100.00;94513.06;7399035;19;20383;-96
2023/12/23 01:30:04;;;;;;;0.80;0.80;;;;;;;6.02;100.00;94559.88;7402799;19;20906;-90
2023/12/23 01:32:32;;;;;;;0.60;0.60;;;;;;;5.97;100.00;94558.19;7400328;19;20424;-91
2023/12/23 01:35:00;;;;;;;0.70;0.60;;;;;;;6.26;100.00;94601.00;7401649;19;20758;-91
2023/12/23 01:37:27;;;;;;;3.60;0.80;;;;;;;6.17;100.00;94592.44;7401778;19;20694;-90
2023/12/23 01:39:55;;;;;;;0.80;0.70;;;;;;;6.00;100.00;94577.63;7402486;19;20845;-91
2023/12/23 01:42:22;;;;;;;1.67;0.70;;;;;;;6.19;100.00;94614.47;7400798;19;20499;-90
2023/12/23 01:44:49;;;;;;;0.70;0.70;;;;;;;6.08;100.00;94594.28;7401347;19;20478;-90
2023/12/23 01:47:17;;;;;;;1.57;0.90;;;;;;;6.40;100.00;94630.19;7401210;19;20392;-91
2023/12/23 01:49:47;;;;;;;0.60;0.60;;;;;;;5.93;100.00;94574.75;7401239;19;20866;-90
2023/12/23 01:52:15;;;;;;;0.87;0.83;;;;;;;6.19;100.00;94613.72;7399771;19;20429;-90
2023/12/23 01:54:43;;;;;;;3.43;0.87;;;;;;;6.30;100.00;94640.97;7401235;19;20444;-91
2023/12/23 01:57:10;;;;;;;1.10;1.00;;;;;;;5.96;100.00;94592.34;7400779;19;20400;-90
2023/12/23 01:59:38;;;;;;;1.00;0.90;;;;;;;6.43;100.00;94645.22;7401524;19;20457;-91
2023/12/23 02:02:06;;;;;;;0.80;0.67;;;;;;;6.12;100.00;94616.81;7399723;19;20410;-91
2023/12/23 02:04:34;;;;;;;0.70;0.67;;;;;;;6.81;100.00;94717.44;7400622;19;20369;-91
2023/12/23 02:07:01;;;;;;;0.90;0.80;;;;;;;6.48;100.00;94688.56;7400530;19;20879;-90
2023/12/23 02:09:29;;;;;;;0.70;0.70;;;;;;;5.99;100.00;94604.75;7398939;19;20850;-91
2023/12/23 02:12:09;;;;;;;1.00;0.90;;;;;;;6.75;100.00;94740.28;7399790;19;20404;-90
2023/12/23 02:14:39;;;;;;;2.13;0.80;;;;;;;6.69;100.00;94756.44;7401379;19;20371;-90
2023/12/23 02:17:08;;;;;;;0.90;0.80;;;;;;;6.33;100.00;94722.94;7400860;19;20400;-91
2023/12/23 02:19:35;;;;;;;0.83;0.80;;;;;;;5.98;100.00;94657.91;7400502;19;20817;-91
2023/12/23 02:22:03;;;;;;;1.77;0.73;;;;;;;6.02;100.00;94671.81;7398575;19;20443;-91
2023/12/23 02:24:31;;;;;;;0.80;0.80;;;;;;;6.55;100.00;94743.59;7400421;19;20735;-90
2023/12/23 02:27:09;;;;;;;0.80;0.80;;;;;;;6.67;100.00;94775.00;7400350;19;20381;-90
2023/12/23 02:29:40;;;;;;;1.37;0.70;;;;;;;5.79;100.00;94649.66;7398673;19;20440;-91
2023/12/23 02:32:12;;;;;;;0.70;0.70;;;;;;;6.00;100.00;94668.00;7398771;19;20884;-91
2023/12/23 02:34:43;;;;;;;1.00;1.00;;;;;;;5.37;100.00;94584.34;7400104;19;20645;-91
2023/12/23 02:37:10;;;;;;;1.57;0.80;;;;;;;6.01;100.00;94679.94;7399980;19;20401;-90
2023/12/23 02:39:37;;;;;;;0.70;0.70;;;;;;;6.12;100.00;94710.56;7398805;19;20396;-91
2023/12/23 02:42:06;;;;;;;1.10;0.90;;;;;;;6.24;100.00;94741.97;7398774;19;20702;-91
2023/12/23 02:44:33;;;;;;;0.70;0.60;;;;;;;6.19;100.00;94736.13;7399929;19;20459;-91
2023/12/23 02:47:01;;;;;;;0.90;0.63;;;;;;;6.04;100.00;94721.75;7399397;19;20397;-91
2023/12/23 02:49:28;;;;;;;0.90;0.80;;;;;;;6.46;100.00;94787.91;7397970;19;20472;-91
2023/12/23 02:51:58;;;;;;;0.90;0.73;;;;;;;5.80;100.00;94698.03;7398566;19;20423;-91
2023/12/23 02:54:26;;;;;;;1.00;0.70;;;;;;;6.26;100.00;94765.09;7399639;19;20364;-91
2023/12/23 02:56:53;;;;;;;0.80;0.80;;;;;;;6.40;100.00;94807.38;7399107;19;20408;-91
2023/12/23 02:59:20;;;;;;;7.03;0.93;;;;;;;6.05;100.00;94735.53;7399099;19;20377;-91
2023/12/23 03:01:48;;;;;;;1.23;1.13;;;;;;;6.09;100.00;94749.47;7398180;19;20383;-91
2023/12/23 03:04:16;;;;;;;3.97;1.00;;;;;;;5.87;100.00;94726.97;7400954;19;20388;-91
2023/12/23 03:06:44;;;;;;;0.80;0.67;;;;;;;6.47;100.00;94810.28;7398738;19;20385;-91
2023/12/23 03:09:12;;;;;;;1.33;0.80;;;;;;;6.04;100.00;94752.22;7398415;19;20473;-91
2023/12/23 03:11:40;;;;;;;0.80;0.80;;;;;;;5.81;100.00;94726.34;7398529;19;20499;-91
2023/12/23 03:14:07;;;;;;;2.20;1.63;;;;;;;5.55;100.00;94689.16;7398561;19;20906;-91
2023/12/23 03:16:35;;;;;;;0.90;0.70;;;;;;;6.00;100.00;94766.94;7398605;19;20396;-91
2023/12/23 03:19:04;;;;;;;1.40;0.80;;;;;;;6.26;100.00;94784.09;7398541;19;20464;-91
2023/12/23 03:21:32;;;;;;;1.63;0.90;;;;;;;5.80;100.00;94721.44;7397491;19;20398;-90
2023/12/23 03:24:00;;;;;;;3.00;1.20;;;;;;;6.16;100.00;94763.56;7400039;19;20365;-91
2023/12/23 03:26:28;;;;;;;0.73;0.67;;;;;;;6.17;100.00;94782.56;7397839;19;20437;-91
2023/12/23 03:28:55;;;;;;;0.70;0.70;;;;;;;6.34;100.00;94800.78;7397789;19;20392;-91
2023/12/23 03:31:23;;;;;;;0.73;0.73;;;;;;;6.27;100.00;94797.88;7398169;19;20424;-90
2023/12/23 03:33:51;;;;;;;5.60;1.10;;;;;;;5.82;100.00;94738.28;7399786;19;20834;-91
2023/12/23 03:36:19;;;;;;;0.80;0.80;;;;;;;6.16;100.00;94783.63;7397528;19;20388;-91
2023/12/23 03:38:46;;;;;;;1.53;0.70;;;;;;;6.40;100.00;94817.03;7397724;19;20714;-91
2023/12/23 03:41:14;;;;;;;1.43;0.90;;;;;;;6.08;100.00;94782.56;7398121;19;20401;-91
2023/12/23 03:43:41;;;;;;;1.73;0.83;;;;;;;6.45;100.00;94845.53;7397665;19;20477;-91
2023/12/23 03:46:10;;;;;;;1.53;0.83;;;;;;;5.81;100.00;94739.38;7397878;19;20365;-91
2023/12/23 03:48:38;;;;;;;2.40;1.07;;;;;;;5.88;100.00;94783.19;7396704;19;20397;-91
2023/12/23 03:51:07;;;;;;;3.43;0.90;;;;;;;5.63;100.00;94769.81;7395179;19;20372;-91
2023/12/23 03:53:35;;;;;;;1.50;1.40;;;;;;;5.57;100.00;94794.47;7397285;19;20372;-90
2023/12/23 03:56:02;;;;;;;1.97;0.80;;;;;;;5.28;100.00;94742.19;7398260;19;20367;-95
2023/12/23 03:58:30;;;;;;;2.33;1.10;;;;;;;5.39;100.00;94759.06;7399049;19;20918;-95
2023/12/23 04:00:57;;;;;;;0.93;0.87;;;;;;;5.57;100.00;94759.84;7399442;19;20459;-95
2023/12/23 04:03:25;;;;;;;1.30;0.80;;;;;;;5.72;100.00;94793.28;7398084;19;20369;-95
2023/12/23 04:05:52;;;;;;;3.23;1.00;;;;;;;5.30;100.00;94761.66;7398090;19;20391;-95
2023/12/23 04:08:20;;;;;;;2.30;1.60;;;;;;;5.72;100.00;94797.72;7397771;19;20387;-94
2023/12/23 04:10:48;;;;;;;3.63;2.57;;;;;;;5.26;100.00;94741.75;7397917;19;20389;-94
2023/12/23 04:13:16;;;;;;;1.43;0.90;;;;;;;5.59;100.00;94797.53;7396187;19;20432;-95
2023/12/23 04:15:44;;;;;;;1.10;0.97;;;;;;;5.49;100.00;94740.56;7397579;19;20384;-96
2023/12/23 04:18:12;;;;;;;1.10;0.97;;;;;;;5.54;100.00;94750.06;7397688;19;20381;-94
2023/12/23 04:20:39;;;;;;;1.27;1.20;;;;;;;5.83;100.00;94799.69;7397613;19;20483;-94
2023/12/23 04:23:07;;;;;;;1.00;0.90;;;;;;;5.96;100.00;94814.41;7395716;19;20452;-94
2023/12/23 04:25:35;;;;;;;2.00;0.90;;;;;;;5.52;100.00;94737.34;7398465;19;20376;-94
2023/12/23 04:28:04;;;;;;;1.50;1.10;;;;;;;5.68;100.00;94777.47;7397091;19;20372;-94
2023/12/23 04:30:31;;;;;;;4.23;1.13;;;;;;;5.79;100.00;94805.81;7395090;19;20396;-95
2023/12/23 04:32:59;;;;;;;5.93;1.20;;;;;;;6.17;100.00;94861.47;7395494;19;20408;-95
2023/12/23 04:35:26;;;;;;;3.17;0.90;;;;;;;5.83;100.00;94801.53;7396979;19;20401;-93
2023/12/23 04:37:54;;;;;;;1.13;0.83;;;;;;;5.96;100.00;94824.06;7396657;19;20380;-95
2023/12/23 04:40:22;;;;;;;0.80;0.80;;;;;;;5.85;100.00;94807.22;7397355;19;20703;-95
2023/12/23 04:42:50;;;;;;;2.07;1.00;;;;;;;5.61;100.00;94781.63;7395325;19;20917;-96
2023/12/23 04:45:18;;;;;;;1.60;1.10;;;;;;;5.95;100.00;94846.72;7397458;19;20416;-95
2023/12/23 04:47:46;;;;;;;1.30;1.20;;;;;;;5.77;100.00;94815.78;7397257;19;20405;-95
2023/12/23 04:50:13;;;;;;;1.77;1.27;;;;;;;5.52;100.00;94788.63;7394561;19;20697;-95
2023/12/23 04:52:41;;;;;;;1.83;1.20;;;;;;;5.54;100.00;94794.28;7395316;19;20400;-96
2023/12/23 04:55:09;;;;;;;1.90;1.40;;;;;;;6.03;100.00;94881.66;7396519;19;20377;-94
2023/12/23 04:57:37;;;;;;;5.37;1.10;;;;;;;5.59;100.00;94813.16;7397164;19;20361;-95
2023/12/23 05:00:05;;;;;;;1.17;1.07;;;;;;;5.85;100.00;94838.47;7396682;19;20409;-95
2023/12/23 05:02:33;;;;;;;0.90;0.90;;;;;;;5.81;100.00;94827.88;7398253;19;20794;-93
2023/12/23 05:05:01;;;;;;;2.20;1.07;;;;;;;5.87;100.00;94839.69;7403847;19;20384;-96
2023/12/23 05:07:29;;;;;;;1.90;1.00;;;;;;;5.64;100.00;94804.41;7403622;19;20886;-95
2023/12/23 05:09:57;;;;;;;3.43;1.40;;;;;;;5.53;100.00;94798.72;7401918;19;20384;-95
2023/12/23 05:12:24;;;;;;;2.93;0.80;;;;;;;5.75;100.00;94843.94;7402187;19;20400;-95
2023/12/23 05:14:52;;;;;;;1.30;1.20;;;;;;;5.51;100.00;94807.91;7403880;19;20483;-94
2023/12/23 05:17:20;;;;;;;1.00;0.90;;;;;;;5.34;100.00;94767.03;7406075;19;20386;-95
2023/12/23 05:19:48;;;;;;;1.97;1.87;;;;;;;5.15;100.00;94751.66;7404279;19;20405;-95
2023/12/23 05:22:15;;;;;;;1.10;1.00;;;;;;;5.40;100.00;94778.81;7402152;19;20420;-94
2023/12/23 05:24:43;;;;;;;1.10;1.00;;;;;;;5.63;100.00;94800.28;7403473;19;20375;-95
2023/12/23 05:27:11;;;;;;;0.87;0.87;;;;;;;5.47;100.00;94786.94;7403347;19;20388;-95
2023/12/23 05:29:39;;;;;;;1.10;1.00;;;;;;;5.61;100.00;94800.59;7404228;19;20384;-94
2023/12/23 05:32:07;;;;;;;1.87;1.40;;;;;;;5.42;100.00;94773.28;7401990;19;20412;-95
2023/12/23 05:34:34;;;;;;;1.20;1.10;;;;;;;5.30;100.00;94766.88;7403223;19;20389;-95
2023/12/23 05:37:02;;;;;;;1.97;1.13;;;;;;;5.33;100.00;94779.25;7402786;19;20381;-95
2023/12/23 05:39:30;;;;;;;1.00;1.00;;;;;;;5.23;100.00;94766.53;7402595;19;20373;-95
2023/12/23 05:41:58;;;;;;;2.90;1.00;;;;;;;5.37;100.00;94774.22;7401918;19;20413;-95
2023/12/23 05:44:26;;;;;;;3.40;1.00;;;;;;;5.38;100.00;94768.69;7403084;19;20384;-95
2023/12/23 05:46:53;;;;;;;5.73;2.00;;;;;;;5.41;100.00;94763.97;7402551;19;20890;-96
2023/12/23 05:49:21;;;;;;;4.30;2.90;;;;;;;5.44;100.00;94787.56;7402369;19;20376;-93
2023/12/23 05:51:53;;;;;;;4.30;2.00;;;;;;;5.52;100.00;94778.22;7401685;19;20416;-95
2023/12/23 05:54:21;;;;;;;1.30;1.20;;;;;;;5.29;100.00;94752.31;7402641;19;20412;-94
2023/12/23 05:56:48;;;;;;;9.10;5.60;;;;;;;5.37;100.00;94751.56;7404107;19;20378;-95
2023/12/23 05:59:15;;;;;;;8.10;5.43;;;;;;;5.84;100.00;94821.31;7403883;19;20888;-95
2023/12/23 06:01:43;;;;;;;2.43;1.60;;;;;;;5.65;100.00;94774.72;7403098;19;20937;-95
2023/12/23 06:04:11;;;;;;;1.37;1.00;;;;;;;5.39;100.00;94736.41;7402611;19;20401;-95
2023/12/23 06:06:38;;;;;;;1.20;1.10;;;;;;;5.57;100.00;94775.47;7401803;19;20389;-94
2023/12/23 06:09:06;;;;;;;0.90;0.90;;;;;;;5.49;100.00;94768.44;7401207;19;20373;-95
2023/12/23 06:11:34;;;;;;;1.50;1.40;;;;;;;5.34;100.00;94738.41;7401137;19;20377;-93
2023/12/23 06:14:02;;;;;;;1.63;1.10;;;;;;;5.30;100.00;94740.06;7400464;19;20373;-95
2023/12/23 06:16:30;;;;;;;1.03;0.93;;;;;;;5.81;100.00;94819.28;7401259;19;20389;-94
2023/12/23 06:18:58;;;;;;;1.10;0.93;;;;;;;5.47;100.00;94757.56;7401273;19;20381;-95
2023/12/23 06:21:25;;;;;;;1.17;1.07;;;;;;;5.19;100.00;94718.81;7400346;19;20729;-94
2023/12/23 06:23:53;;;;;;;2.10;1.00;;;;;;;4.88;100.00;94686.91;7401151;19;20392;-95
2023/12/23 06:26:20;;;;;;;2.03;0.87;;;;;;;5.37;100.00;94743.00;7402884;19;20869;-96
2023/12/23 06:28:48;;;;;;;1.63;1.37;;;;;;;5.22;100.00;94718.19;7400617;19;20854;-94
2023/12/23 06:31:16;;;;;;;0.80;0.80;;;;;;;5.29;100.00;94733.31;7398982;19;20397;-95
2023/12/23 06:33:43;;;;;;;2.83;0.90;;;;;;;5.21;100.00;94721.09;7401383;19;20369;-95
2023/12/23 06:36:11;;;;;;;1.00;1.00;;;;;;;5.66;100.00;94779.63;7400749;19;20726;-95
2023/12/23 06:38:38;;;;;;;1.00;0.70;;;;;;;5.17;100.00;94726.13;7400720;19;20416;-94
2023/12/23 06:41:06;;;;;;;0.73;0.73;;;;;;;5.07;100.00;94701.19;7401287;19;20381;-94
2023/12/23 06:43:34;;;;;;;0.90;0.90;;;;;;;5.52;100.00;94762.59;7400337;19;20385;-94
2023/12/23 06:46:18;;;;;;;0.80;0.80;;;;;;;5.11;100.00;94703.94;7401684;19;20373;-94
2023/12/23 06:48:45;;;;;;;1.10;1.00;;;;;;;5.32;100.00;94702.31;7400329;19;20381;-95
2023/12/23 06:51:14;;;;;;;0.90;0.90;;;;;;;5.43;100.00;94723.56;7398033;19;20872;-95
2023/12/23 06:53:41;;;;;;;1.10;0.90;;;;;;;5.08;100.00;94681.16;7400102;19;20886;-94
2023/12/23 06:56:11;;;;;;;1.53;1.23;;;;;;;5.38;100.00;94708.13;7400817;19;20383;-95
2023/12/23 06:58:39;;;;;;;0.90;0.90;;;;;;;5.24;100.00;94702.28;7399629;19;20392;-94
2023/12/23 07:01:06;;;;;;;0.90;0.90;;;;;;;5.29;100.00;94689.13;7399208;19;20423;-95
2023/12/23 07:03:34;;;;;;;1.37;1.03;;;;;;;5.82;100.00;94756.50;7400093;19;20365;-95
2023/12/23 07:06:02;;;;;;;1.57;1.47;;;;;;;4.90;100.00;94633.56;7399623;19;20396;-95
2023/12/23 07:08:29;;;;;;;1.80;1.70;;;;;;;5.09;100.00;94641.84;7400042;19;20400;-94
2023/12/23 07:10:57;;;;;;;3.70;2.67;;;;;;;5.47;100.00;94672.47;7398351;19;20393;-95
2023/12/23 07:13:25;;;;;;;4.27;3.57;;;;;;;5.28;100.00;94651.94;7399113;19;20420;-95
2023/12/23 07:15:53;;;;;;;1.50;1.40;;;;;;;5.58;100.00;94680.75;7399239;19;20383;-95
2023/12/23 07:18:23;;;;;;;1.77;1.67;;;;;;;5.35;100.00;94646.31;7399222;19;20406;-95
2023/12/23 07:20:51;;;;;;;1.30;0.80;;;;;;;5.36;100.00;94625.19;7399977;19;20387;-94
2023/12/23 07:23:18;;;;;;;1.10;1.00;;;;;;;5.49;100.00;94640.94;7396968;19;20448;-94
2023/12/23 07:25:46;;;;;;;2.30;2.10;;;;;;;5.71;100.00;94640.78;7399108;19;20368;-94
2023/12/23 07:28:14;;;;;;;2.50;2.30;;;;;;;5.90;100.00;94663.88;7399157;19;20422;-95
2023/12/23 07:30:44;;;;;;;2.23;2.13;;;;;;;5.69;100.00;94598.66;7397206;19;20368;-94
2023/12/23 07:33:13;;;;;;;0.97;0.90;;;;;;;5.87;100.00;94581.19;7397365;19;20714;-94
2023/12/23 07:35:41;;;;;;;1.40;1.30;;;;;;;6.53;100.00;94667.56;7398683;19;20372;-94
2023/12/23 07:38:08;;;;;;;1.10;1.00;;;;;;;6.32;100.00;94598.97;7399002;19;20353;-95
2023/12/23 07:40:36;;;;;;;0.97;0.97;;;;;;;6.69;100.00;94628.69;7398541;19;20398;-95
2023/12/23 07:43:04;;;;;;;0.90;0.90;;;;;;;6.43;100.00;94584.50;7397204;19;20400;-94
2023/12/23 07:45:36;;;;;;;2.17;1.00;;;;;;;6.81;100.00;94613.16;7398907;19;20405;-96
2023/12/23 07:48:04;;;;;;;0.93;0.93;;;;;;;6.07;100.00;94489.38;7399901;19;20413;-96
2023/12/23 07:50:31;;;;;;;1.10;0.90;;;;;;;6.62;100.00;94561.41;7398545;19;20369;-94
2023/12/23 07:52:59;;;;;;;0.83;0.83;;;;;;;6.93;100.00;94600.19;7396395;19;20405;-95
2023/12/23 07:55:27;;;;;;;1.50;0.90;;;;;;;6.98;100.00;94586.19;7398031;19;20371;-94
2023/12/23 07:57:54;;;;;;;1.23;1.07;;;;;;;7.27;100.00;94625.28;7398618;19;20369;-93
2023/12/23 08:00:22;;;;;;;1.47;1.30;;;;;;;7.10;100.00;94589.63;7400032;19;20373;-94
2023/12/23 08:02:49;;;;;;;1.20;1.10;;;;;;;7.05;100.00;94587.22;7398079;19;20419;-94
2023/12/23 08:05:18;;;;;;;1.57;0.80;;;;;;;7.19;100.00;94599.25;7402090;19;20381;-94
2023/12/23 08:07:45;;;;;;;2.47;1.10;;;;;;;7.07;100.00;94582.47;7411280;19;20372;-95
2023/12/23 08:10:13;;;;;;;0.90;0.60;;;;;;;7.70;100.00;94655.50;7416238;19;20416;-93
2023/12/23 08:12:40;;;;;;;0.80;0.80;;;;;;;7.30;100.00;94589.94;7411050;19;20427;-94
2023/12/23 08:15:09;;;;;;;1.00;1.00;;;;;;;7.13;100.00;94572.59;7415070;19;20377;-88
2023/12/23 08:17:36;;;;;;;1.13;1.00;;;;;;;7.26;100.00;94576.78;7401539;19;20372;-94
2023/12/23 08:20:05;;;;;;;0.90;0.70;;;;;;;7.46;100.00;94594.28;7398485;19;20389;-93
2023/12/23 08:22:33;;;;;;;0.90;0.90;;;;;;;7.30;100.00;94564.63;7396266;19;20435;-95
2023/12/23 08:25:01;;;;;;;1.00;0.90;;;;;;;7.64;100.00;94609.78;7397584;19;20383;-95
2023/12/23 08:27:28;;;;;;;1.40;1.03;;;;;;;7.22;100.00;94543.81;7399325;19;20387;-94
2023/12/23 08:29:56;;;;;;;1.10;1.00;;;;;;;7.53;100.00;94590.38;7397201;19;20381;-94
2023/12/23 08:32:23;;;;;;;1.80;1.30;;;;;;;7.43;100.00;94570.66;7397590;19;20913;-94
2023/12/23 08:34:51;;;;;;;2.63;2.30;;;;;;;7.17;100.00;94529.13;7398191;19;20397;-94
2023/12/23 08:37:20;;;;;;;1.73;1.63;;;;;;;7.23;100.00;94530.47;7400550;19;20925;-94
2023/12/23 08:39:47;;;;;;;1.30;1.20;;;;;;;7.30;100.00;94502.00;7404919;19;20388;-95
2023/12/23 08:42:15;;;;;;;0.70;0.70;;;;;;;7.04;100.00;94502.25;7403908;19;20412;-93
2023/12/23 08:44:42;;;;;;;0.70;0.70;;;;;;;7.45;100.00;94547.63;7403222;19;20380;-83
2023/12/23 08:47:10;;;;;;;1.07;0.97;;;;;;;7.57;100.00;94576.38;7404157;19;20711;-95
2023/12/23 08:49:39;;;;;;;2.13;0.87;;;;;;;7.65;100.00;94585.19;7405853;19;20380;-94
2023/12/23 08:52:07;;;;;;;3.17;2.87;;;;;;;7.40;100.00;94519.09;7402921;19;20424;-95
2023/12/23 08:54:35;;;;;;;1.77;1.27;;;;;;;7.36;100.00;94529.44;7403535;19;20452;-95
2023/12/23 08:57:06;;;;;;;1.17;1.00;;;;;;;7.07;100.00;94459.88;7404465;19;20360;-94
2023/12/23 08:59:33;;;;;;;0.90;0.90;;;;;;;7.41;100.00;94531.81;7404522;19;20392;-95
2023/12/23 09:02:02;;;;;;;0.80;0.80;;;;;;;7.14;100.00;94491.41;7403121;19;20408;-95
2023/12/23 09:04:30;;;;;;;0.83;0.80;;;;;;;8.04;100.00;94610.00;7403187;19;20392;-95
2023/12/23 09:06:58;;;;;;;1.50;1.40;;;;;;;7.69;100.00;94557.34;7403655;19;20373;-95
2023/12/23 09:09:25;;;;;;;1.67;1.30;;;;;;;7.43;100.00;94502.78;7403077;19;20869;-95
2023/12/23 09:11:53;;;;;;;1.40;1.00;;;;;;;7.22;100.00;94502.84;7401456;19;20772;-96
2023/12/23 09:14:21;;;;;;;1.40;1.30;;;;;;;7.01;100.00;94462.97;7406500;19;20863;-95
2023/12/23 09:16:48;;;;;;;8.30;1.30;;;;;;;7.53;100.00;94540.78;7403364;19;20397;-95
2023/12/23 09:19:16;;;;;;;1.77;1.00;;;;;;;7.52;100.00;94534.03;7405023;19;20389;-95
2023/12/23 09:21:43;;;;;;;1.27;1.00;;;;;;;7.43;100.00;94529.66;7402508;19;20427;-96
2023/12/23 09:24:11;;;;;;;10.53;1.27;;;;;;;7.75;100.00;94590.78;7402791;19;20444;-95
2023/12/23 09:26:39;;;;;;;1.50;1.40;;;;;;;7.41;100.00;94536.28;7402934;19;20365;-92
2023/12/23 09:29:06;;;;;;;0.97;0.87;;;;;;;7.83;100.00;94606.69;7403444;19;20381;-94
2023/12/23 09:31:34;;;;;;;1.07;0.97;;;;;;;7.57;100.00;94534.63;7400997;19;20389;-94
2023/12/23 09:34:02;;;;;;;1.77;1.37;;;;;;;7.50;100.00;94552.63;7403377;19;20456;-93
2023/12/23 09:36:29;;;;;;;2.17;1.40;;;;;;;7.58;100.00;94554.41;7402819;19;20369;-93
2023/12/23 09:38:57;;;;;;;1.30;1.20;;;;;;;7.54;100.00;94540.47;7402585;19;20386;-94
2023/12/23 09:41:25;;;;;;;1.40;1.30;;;;;;;7.73;100.00;94573.94;7402304;19;20405;-95
2023/12/23 09:43:53;;;;;;;1.00;0.90;;;;;;;7.74;100.00;94565.00;7402178;19;20387;-94
2023/12/23 09:46:20;;;;;;;2.53;2.30;;;;;;;7.67;100.00;94562.91;7402169;19;20452;-93
2023/12/23 09:48:48;;;;;;;1.20;1.10;;;;;;;7.55;100.00;94534.16;7400514;19;20371;-93
2023/12/23 09:51:19;;;;;;;3.00;1.00;;;;;;;7.61;100.00;94547.78;7403380;19;20392;-94
2023/12/23 09:53:47;;;;;;;0.70;0.70;;;;;;;8.00;100.00;94607.28;7404522;19;20390;-93
2023/12/23 09:56:15;;;;;;;0.80;0.80;;;;;;;7.42;100.00;94502.03;7402827;19;20377;-93
2023/12/23 09:58:43;;;;;;;0.90;0.80;;;;;;;7.80;100.00;94566.31;7403050;19;20380;-93
2023/12/23 10:01:11;;;;;;;0.80;0.80;;;;;;;7.38;100.00;94503.75;7401770;19;20380;-93
2023/12/23 10:03:39;;;;;;;3.37;3.00;;;;;;;7.68;100.00;94551.38;7401862;19;20413;-93
2023/12/23 10:06:07;;;;;;;1.33;1.13;;;;;;;7.90;100.00;94578.97;7402016;19;20375;-94
2023/12/23 10:08:35;;;;;;;0.93;0.93;;;;;;;7.89;100.00;94561.00;7402512;19;20371;-93
2023/12/23 10:11:02;;;;;;;1.47;0.70;;;;;;;7.41;100.00;94507.56;7406532;19;20468;-96
2023/12/23 10:13:30;;;;;;;1.57;1.10;;;;;;;7.55;100.00;94518.50;7403646;19;20383;-95
2023/12/23 10:15:57;;;;;;;1.00;0.70;;;;;;;7.83;100.00;94536.94;7403292;19;20397;-95
2023/12/23 10:18:25;;;;;;;1.10;1.00;;;;;;;7.51;100.00;94503.81;7401332;19;20391;-94
2023/12/23 10:20:52;;;;;;;4.67;2.03;;;;;;;7.66;100.00;94516.25;7401870;19;20377;-94
2023/12/23 10:23:21;;;;;;;1.10;0.97;;;;;;;7.55;100.00;94526.31;7403222;19;20445;-94
2023/12/23 10:26:03;;;;;;;0.70;0.70;;;;;;;7.53;100.00;94486.72;7407482;19;20373;-94
2023/12/23 10:28:36;;;;;;;0.93;0.80;;;;;;;7.50;100.00;94482.16;7401996;19;20890;-95
2023/12/23 10:31:05;;;;;;;1.10;0.97;;;;;;;7.28;100.00;94436.31;7400455;19;20870;-96
2023/12/23 10:33:38;;;;;;;1.60;1.47;;;;;;;7.57;100.00;94500.69;7402560;19;20469;-96
2023/12/23 10:36:07;;;;;;;0.80;0.70;;;;;;;7.76;100.00;94508.75;7401212;19;20365;-95
2023/12/23 10:38:37;;;;;;;1.10;1.00;;;;;;;7.55;100.00;94494.25;7400865;19;20476;-95
2023/12/23 10:41:17;;;;;;;1.07;0.90;;;;;;;7.59;100.00;94495.91;7402823;19;20373;-87
2023/12/23 10:43:48;;;;;;;1.13;0.70;;;;;;;8.13;100.00;94570.75;7400081;19;20388;-84
2023/12/23 10:46:16;;;;;;;0.90;0.90;;;;;;;7.67;100.00;94496.88;7403882;19;20389;-95
2023/12/23 10:48:47;;;;;;;2.80;1.10;;;;;;;8.31;100.00;94587.75;7409347;19;20369;-96
2023/12/23 10:51:28;;;;;;;1.63;0.90;;;;;;;8.35;100.00;94583.38;7413172;19;20420;-96
2023/12/23 10:54:01;;;;;;;1.90;1.20;;;;;;;8.25;100.00;94568.16;7409687;19;20369;-96
2023/12/23 10:56:29;;;;;;;0.90;0.90;;;;;;;7.57;100.00;94473.78;7410088;19;20401;-96
2023/12/23 10:58:57;;;;;;;0.70;0.70;;;;;;;7.89;100.00;94535.66;7407085;19;20357;-96
2023/12/23 11:01:28;;;;;;;2.73;1.40;;;;;;;8.33;100.00;94575.88;7406417;19;20404;-96
2023/12/23 11:04:02;;;;;;;0.80;0.70;;;;;;;7.51;100.00;94454.97;7406478;19;20383;-96
2023/12/23 11:06:34;;;;;;;1.43;1.33;;;;;;;6.90;100.00;94366.13;7412711;19;20380;-96
2023/12/23 11:09:04;;;;;;;1.03;0.93;;;;;;;7.58;100.00;94470.13;7406155;19;20376;-96
2023/12/23 11:11:33;;;;;;;1.17;1.07;;;;;;;8.01;100.00;94537.53;7402501;19;20411;-96
2023/12/23 11:14:00;;;;;;;1.20;1.10;;;;;;;7.89;100.00;94503.56;7403553;19;20390;-96
2023/12/23 11:16:29;;;;;;;1.50;1.00;;;;;;;7.40;100.00;94433.75;7406203;19;20401;-96
2023/12/23 11:18:56;;;;;;;1.23;1.10;;;;;;;8.01;100.00;94553.97;7406124;19;20398;-96
2023/12/23 11:21:24;;;;;;;1.80;1.40;;;;;;;7.70;100.00;94502.19;7404030;19;20399;-96
2023/12/23 11:23:51;;;;;;;1.80;1.00;;;;;;;7.66;100.00;94477.06;7403988;19;20395;-96
2023/12/23 11:26:53;;;;;;;1.20;1.10;;;;;;;8.29;100.00;94571.63;7403633;19;20393;-96
2023/12/23 11:29:22;;;;;;;1.83;1.40;;;;;;;7.92;100.00;94506.28;7400184;19;20408;-96
2023/12/23 11:31:50;;;;;;;0.90;0.90;;;;;;;7.81;100.00;94488.72;7403949;19;20416;-96
2023/12/23 11:34:20;;;;;;;1.20;1.10;;;;;;;8.15;100.00;94534.59;7404129;19;20835;-96
2023/12/23 11:36:48;;;;;;;1.37;1.20;;;;;;;7.78;100.00;94484.94;7406754;19;20691;-96
2023/12/23 11:39:18;;;;;;;1.40;1.30;;;;;;;8.11;100.00;94544.94;7404674;19;20696;-96
2023/12/23 11:41:47;;;;;;;1.17;1.07;;;;;;;7.76;100.00;94493.09;7403700;19;20416;-96